Time;durP1;ratioP1;P1;durP2;ratioP2;P2;SDS_P1;SDS_P2;PMS_P1;PMS_P2;Temp;Humidity;BMP_temperature;BMP_pressure;BME280_temperature;BME280_humidity;BME280_pressure;Samples;Min_cycle;Max_cycle;Signal;HPM_P1;HPM_P2
2023/07/31 00:01:41;;;;;;;2.70;1.10;;;;;;;;;;5026467;28;20225;-29
2023/07/31 00:04:09;;;;;;;1.57;1.20;;;;;;;;;;5035052;28;20210;-28
2023/07/31 00:06:38;;;;;;;1.87;1.20;;;;;;;;;;5029341;28;20277;-28
2023/07/31 00:09:05;;;;;;;2.10;1.10;;;;;;;;;;5019454;28;20231;-26
2023/07/31 00:11:32;;;;;;;2.97;1.20;;;;;;;;;;5014167;28;20206;-28
2023/07/31 00:13:59;;;;;;;3.30;1.50;;;;;;;;;;5018493;28;20254;-28
2023/07/31 00:16:28;;;;;;;7.57;1.17;;;;;;;;;;5013296;28;20207;-30
2023/07/31 00:18:57;;;;;;;1.30;1.20;;;;;;;;;;5014532;28;20274;-29
2023/07/31 00:21:25;;;;;;;1.40;1.30;;;;;;;;;;5015531;28;20207;-29
2023/07/31 00:23:52;;;;;;;2.87;1.27;;;;;;;;;;5030654;28;20210;-27
2023/07/31 00:26:19;;;;;;;1.30;1.20;;;;;;;;;;5028561;28;20234;-27
2023/07/31 00:28:46;;;;;;;2.40;1.00;;;;;;;;;;5018673;28;20231;-30
2023/07/31 00:31:13;;;;;;;1.90;1.30;;;;;;;;;;5026802;28;20241;-26
2023/07/31 00:33:42;;;;;;;11.50;1.53;;;;;;;;;;5034315;28;20215;-30
2023/07/31 00:36:09;;;;;;;1.10;1.00;;;;;;;;;;5030773;28;20198;-27
2023/07/31 00:38:36;;;;;;;1.70;1.10;;;;;;;;;;5034459;28;20226;-27
2023/07/31 00:41:04;;;;;;;2.87;1.00;;;;;;;;;;5033058;28;20261;-28
2023/07/31 00:43:31;;;;;;;1.70;1.00;;;;;;;;;;5017457;28;20294;-26
2023/07/31 00:45:58;;;;;;;3.07;1.10;;;;;;;;;;5020869;28;20211;-27
2023/07/31 00:48:25;;;;;;;2.80;1.33;;;;;;;;;;5012993;28;20211;-30
2023/07/31 00:50:54;;;;;;;1.33;1.00;;;;;;;;;;5021598;28;20198;-30
2023/07/31 00:53:21;;;;;;;2.33;1.17;;;;;;;;;;5026957;28;20203;-29
2023/07/31 00:55:48;;;;;;;1.50;1.00;;;;;;;;;;5020431;28;20205;-28
2023/07/31 00:58:15;;;;;;;2.50;1.30;;;;;;;;;;5018606;28;20229;-30
2023/07/31 01:00:42;;;;;;;2.30;1.37;;;;;;;;;;5024153;28;20199;-27
2023/07/31 01:03:09;;;;;;;2.13;1.30;;;;;;;;;;5021298;28;20270;-29
2023/07/31 01:05:41;;;;;;;2.90;1.23;;;;;;;;;;5016231;28;20204;-27
2023/07/31 01:08:13;;;;;;;1.50;1.10;;;;;;;;;;5009492;28;20222;-29
2023/07/31 01:10:47;;;;;;;1.73;1.00;;;;;;;;;;5017182;28;20208;-28
2023/07/31 01:13:14;;;;;;;1.00;1.00;;;;;;;;;;5018360;28;20716;-29
2023/07/31 01:15:41;;;;;;;1.87;1.20;;;;;;;;;;5027743;28;20210;-30
2023/07/31 01:18:08;;;;;;;1.43;1.00;;;;;;;;;;5031174;28;20223;-29
2023/07/31 01:20:37;;;;;;;1.93;1.10;;;;;;;;;;5023411;28;20224;-31
2023/07/31 01:23:22;;;;;;;1.40;1.10;;;;;;;;;;5013880;28;20215;-30
2023/07/31 01:25:54;;;;;;;1.43;1.30;;;;;;;;;;5029237;28;20209;-26
2023/07/31 01:28:25;;;;;;;1.17;1.00;;;;;;;;;;5017289;28;20207;-29
2023/07/31 01:30:53;;;;;;;1.87;1.23;;;;;;;;;;5021910;28;20206;-28
2023/07/31 01:33:20;;;;;;;2.80;1.17;;;;;;;;;;5011487;28;20204;-29
2023/07/31 01:35:49;;;;;;;1.00;1.00;;;;;;;;;;5011746;28;20214;-29
2023/07/31 01:38:16;;;;;;;2.20;0.87;;;;;;;;;;5010390;28;20222;-28
2023/07/31 01:40:43;;;;;;;1.20;1.00;;;;;;;;;;5018681;28;20208;-27
2023/07/31 01:43:12;;;;;;;1.37;1.13;;;;;;;;;;5014252;28;20662;-29
2023/07/31 01:45:39;;;;;;;5.03;1.00;;;;;;;;;;5011194;28;20214;-29
2023/07/31 01:48:06;;;;;;;2.97;1.30;;;;;;;;;;5029703;28;20298;-27
2023/07/31 01:50:33;;;;;;;1.50;1.30;;;;;;;;;;5020468;28;20294;-29
2023/07/31 01:53:01;;;;;;;2.87;1.20;;;;;;;;;;5016960;28;20219;-30
2023/07/31 01:55:28;;;;;;;3.70;1.30;;;;;;;;;;5019088;28;20201;-29
2023/07/31 01:57:55;;;;;;;2.57;1.23;;;;;;;;;;5016845;28;20206;-30
2023/07/31 02:00:23;;;;;;;1.83;0.93;;;;;;;;;;5025169;28;20222;-29
2023/07/31 02:02:50;;;;;;;2.00;1.13;;;;;;;;;;5030968;28;20194;-29
2023/07/31 02:05:17;;;;;;;1.33;1.20;;;;;;;;;;5023060;28;20558;-27
2023/07/31 02:07:45;;;;;;;2.80;1.43;;;;;;;;;;5011893;28;20218;-30
2023/07/31 02:10:12;;;;;;;1.30;1.20;;;;;;;;;;5030576;28;20700;-29
2023/07/31 02:12:39;;;;;;;3.10;1.10;;;;;;;;;;5015280;28;20206;-26
2023/07/31 02:15:06;;;;;;;1.47;1.17;;;;;;;;;;5026737;28;20203;-30
2023/07/31 02:17:35;;;;;;;2.47;1.30;;;;;;;;;;5024869;28;20206;-31
2023/07/31 02:20:02;;;;;;;1.70;1.30;;;;;;;;;;5030687;28;20230;-29
2023/07/31 02:22:29;;;;;;;1.40;1.27;;;;;;;;;;5027079;28;20229;-30
2023/07/31 02:24:56;;;;;;;2.30;1.00;;;;;;;;;;5018217;28;20214;-29
2023/07/31 02:27:27;;;;;;;1.30;1.20;;;;;;;;;;5011427;28;20433;-29
2023/07/31 02:29:54;;;;;;;1.63;1.00;;;;;;;;;;5026467;28;20218;-28
2023/07/31 02:32:21;;;;;;;1.50;1.03;;;;;;;;;;5030081;28;20249;-27
2023/07/31 02:34:49;;;;;;;2.47;1.10;;;;;;;;;;5024776;28;20199;-28
2023/07/31 02:37:16;;;;;;;2.87;1.17;;;;;;;;;;5013585;28;20207;-29
2023/07/31 02:39:44;;;;;;;1.03;1.00;;;;;;;;;;5018251;28;20231;-30
2023/07/31 02:42:11;;;;;;;2.77;1.00;;;;;;;;;;5018696;28;20203;-29
2023/07/31 02:44:38;;;;;;;1.33;1.10;;;;;;;;;;5013303;28;20680;-29
2023/07/31 02:47:05;;;;;;;2.30;1.13;;;;;;;;;;5009904;28;20203;-29
2023/07/31 02:49:32;;;;;;;3.53;1.10;;;;;;;;;;5010403;28;20228;-30
2023/07/31 02:52:01;;;;;;;1.23;1.00;;;;;;;;;;5021603;28;20285;-30
2023/07/31 02:54:28;;;;;;;1.13;0.90;;;;;;;;;;5015685;28;20203;-26
2023/07/31 02:56:55;;;;;;;2.30;1.13;;;;;;;;;;5025335;28;20266;-26
2023/07/31 02:59:23;;;;;;;1.20;1.10;;;;;;;;;;5028750;28;20599;-26
2023/07/31 03:01:50;;;;;;;3.17;1.10;;;;;;;;;;5017004;28;20221;-27
2023/07/31 03:04:17;;;;;;;2.13;1.10;;;;;;;;;;5014282;28;20213;-28
2023/07/31 03:06:44;;;;;;;1.13;1.03;;;;;;;;;;5018573;28;20207;-30
2023/07/31 03:09:12;;;;;;;2.07;1.10;;;;;;;;;;5029614;28;20215;-27
2023/07/31 03:11:39;;;;;;;1.30;0.90;;;;;;;;;;5024814;28;20218;-27
2023/07/31 03:14:07;;;;;;;6.37;1.30;;;;;;;;;;5021290;28;20199;-30
2023/07/31 03:16:34;;;;;;;1.83;1.10;;;;;;;;;;5021551;28;20213;-28
2023/07/31 03:19:01;;;;;;;3.93;1.10;;;;;;;;;;5012510;28;20249;-27
2023/07/31 03:21:28;;;;;;;2.07;1.20;;;;;;;;;;5020156;28;20214;-26
2023/07/31 03:23:55;;;;;;;3.27;1.20;;;;;;;;;;5018864;28;20254;-26
2023/07/31 03:26:24;;;;;;;1.20;1.10;;;;;;;;;;5021599;28;20207;-27
2023/07/31 03:28:51;;;;;;;1.40;1.10;;;;;;;;;;5030302;28;20325;-27
2023/07/31 03:31:18;;;;;;;3.67;1.53;;;;;;;;;;5039787;28;20205;-31
2023/07/31 03:33:45;;;;;;;6.40;1.40;;;;;;;;;;5053901;28;20208;-28
2023/07/31 03:36:12;;;;;;;1.37;0.93;;;;;;;;;;5024964;28;20203;-27
2023/07/31 03:38:39;;;;;;;1.10;1.00;;;;;;;;;;5033427;28;20318;-30
2023/07/31 03:41:07;;;;;;;1.80;1.20;;;;;;;;;;5031777;28;20562;-31
2023/07/31 03:43:35;;;;;;;0.83;0.83;;;;;;;;;;5015686;28;20689;-27
2023/07/31 03:46:03;;;;;;;0.90;0.90;;;;;;;;;;5024295;28;20208;-29
2023/07/31 03:48:30;;;;;;;1.27;1.03;;;;;;;;;;5033888;28;20234;-29
2023/07/31 03:50:57;;;;;;;2.67;1.43;;;;;;;;;;5029567;28;20199;-29
2023/07/31 03:53:24;;;;;;;2.70;1.17;;;;;;;;;;5030732;28;20206;-29
2023/07/31 03:55:52;;;;;;;1.47;1.37;;;;;;;;;;5031933;28;20210;-26
2023/07/31 03:58:19;;;;;;;1.30;1.17;;;;;;;;;;5024373;28;20206;-29
2023/07/31 04:00:50;;;;;;;4.40;1.37;;;;;;;;;;5022502;28;20222;-29
2023/07/31 04:03:17;;;;;;;3.00;1.20;;;;;;;;;;5035509;28;20250;-26
2023/07/31 04:05:45;;;;;;;1.20;1.20;;;;;;;;;;5028805;28;20265;-30
2023/07/31 04:08:12;;;;;;;2.40;1.37;;;;;;;;;;5020263;28;20297;-27
2023/07/31 04:10:42;;;;;;;1.70;1.10;;;;;;;;;;5015398;28;20665;-30
2023/07/31 04:13:09;;;;;;;1.30;1.20;;;;;;;;;;5021677;28;20213;-27
2023/07/31 04:15:37;;;;;;;1.93;1.47;;;;;;;;;;5015806;28;20208;-28
2023/07/31 04:18:06;;;;;;;1.83;1.00;;;;;;;;;;5034177;28;20234;-28
2023/07/31 04:20:33;;;;;;;2.60;1.13;;;;;;;;;;5035029;28;20341;-29
2023/07/31 04:23:00;;;;;;;4.57;1.30;;;;;;;;;;5023237;28;20214;-29
2023/07/31 04:25:27;;;;;;;1.17;1.10;;;;;;;;;;5025586;28;20203;-25
2023/07/31 04:28:07;;;;;;;1.13;1.10;;;;;;;;;;5028453;28;20217;-28
2023/07/31 04:30:48;;;;;;;1.77;1.00;;;;;;;;;;5027097;28;20308;-26
2023/07/31 04:33:25;;;;;;;2.47;1.10;;;;;;;;;;5015253;28;20402;-28
2023/07/31 04:35:54;;;;;;;1.10;1.10;;;;;;;;;;5014861;28;20211;-26
2023/07/31 04:38:22;;;;;;;2.10;1.07;;;;;;;;;;5024005;28;20286;-26
2023/07/31 04:40:49;;;;;;;2.20;0.97;;;;;;;;;;5026065;28;20222;-28
2023/07/31 04:43:19;;;;;;;1.40;1.07;;;;;;;;;;5020298;28;20653;-30
2023/07/31 04:45:48;;;;;;;2.93;1.53;;;;;;;;;;5026140;28;20278;-29
2023/07/31 04:48:15;;;;;;;1.33;1.10;;;;;;;;;;5014806;28;20294;-30
2023/07/31 04:50:43;;;;;;;1.83;1.40;;;;;;;;;;5015876;28;20243;-28
2023/07/31 04:53:11;;;;;;;1.30;1.20;;;;;;;;;;5116642;22;20237;-30
2023/07/31 04:55:38;;;;;;;1.20;1.00;;;;;;;;;;5032636;28;20217;-28
2023/07/31 04:58:05;;;;;;;1.63;1.20;;;;;;;;;;5046119;28;20570;-30
2023/07/31 05:00:32;;;;;;;1.60;1.43;;;;;;;;;;5026962;28;20504;-29
2023/07/31 05:02:59;;;;;;;2.17;1.20;;;;;;;;;;5032772;28;20642;-26
2023/07/31 05:05:27;;;;;;;1.20;1.03;;;;;;;;;;5030298;28;20202;-26
2023/07/31 05:07:55;;;;;;;3.40;1.47;;;;;;;;;;5025718;28;20644;-27
2023/07/31 05:10:22;;;;;;;2.43;1.60;;;;;;;;;;5019689;28;20693;-28
2023/07/31 05:12:49;;;;;;;1.20;1.10;;;;;;;;;;5016957;28;20504;-29
2023/07/31 05:15:17;;;;;;;1.57;1.30;;;;;;;;;;5024028;28;20202;-28
2023/07/31 05:17:44;;;;;;;2.93;1.30;;;;;;;;;;5016288;28;20311;-29
2023/07/31 05:20:11;;;;;;;2.53;1.27;;;;;;;;;;5012981;28;20286;-29
2023/07/31 05:22:38;;;;;;;1.33;1.20;;;;;;;;;;5019932;28;20214;-26
2023/07/31 05:25:07;;;;;;;1.40;1.30;;;;;;;;;;5031570;28;20203;-30
2023/07/31 05:27:34;;;;;;;1.33;1.23;;;;;;;;;;5017779;28;20208;-26
2023/07/31 05:30:02;;;;;;;2.40;1.63;;;;;;;;;;5019904;28;20245;-25
2023/07/31 05:32:29;;;;;;;2.40;1.30;;;;;;;;;;5026350;28;20205;-27
2023/07/31 05:34:56;;;;;;;3.00;1.50;;;;;;;;;;5025597;28;20207;-29
2023/07/31 05:37:23;;;;;;;1.23;1.10;;;;;;;;;;5019259;28;20203;-29
2023/07/31 05:39:50;;;;;;;3.90;1.33;;;;;;;;;;5028783;28;20230;-29
2023/07/31 05:42:19;;;;;;;3.33;1.47;;;;;;;;;;5026165;28;20246;-29
2023/07/31 05:44:46;;;;;;;2.37;1.10;;;;;;;;;;5022607;28;20203;-29
2023/07/31 05:47:14;;;;;;;2.60;1.40;;;;;;;;;;5030763;28;20249;-29
2023/07/31 05:49:41;;;;;;;6.10;1.40;;;;;;;;;;5027738;28;20219;-30
2023/07/31 05:52:08;;;;;;;1.97;1.30;;;;;;;;;;5014677;28;20221;-26
2023/07/31 05:54:35;;;;;;;2.93;1.63;;;;;;;;;;5026432;28;20209;-28
2023/07/31 05:57:02;;;;;;;3.03;1.60;;;;;;;;;;5020034;28;20211;-29
2023/07/31 05:59:32;;;;;;;2.50;1.53;;;;;;;;;;5020395;28;20227;-29
2023/07/31 06:02:00;;;;;;;3.10;1.40;;;;;;;;;;5011679;28;20214;-28
2023/07/31 06:04:27;;;;;;;1.50;1.40;;;;;;;;;;5011520;28;20245;-30
2023/07/31 06:06:54;;;;;;;1.47;1.27;;;;;;;;;;5014394;28;20225;-27
2023/07/31 06:09:21;;;;;;;2.80;1.60;;;;;;;;;;5019578;28;20222;-27
2023/07/31 06:11:47;;;;;;;1.73;1.60;;;;;;;;;;5015915;28;20665;-29
2023/07/31 06:14:14;;;;;;;3.73;1.67;;;;;;;;;;5015782;28;20257;-30
2023/07/31 06:16:43;;;;;;;3.00;1.30;;;;;;;;;;5018734;28;20737;-28
2023/07/31 06:19:11;;;;;;;3.67;1.40;;;;;;;;;;5013219;28;20249;-29
2023/07/31 06:21:38;;;;;;;4.13;1.63;;;;;;;;;;5018565;28;20293;-30
2023/07/31 06:24:06;;;;;;;1.97;1.40;;;;;;;;;;5019914;28;20227;-28
2023/07/31 06:26:33;;;;;;;2.47;1.57;;;;;;;;;;5019035;28;20217;-26
2023/07/31 06:29:00;;;;;;;3.13;1.60;;;;;;;;;;5013540;28;20249;-29
2023/07/31 06:31:27;;;;;;;1.20;1.10;;;;;;;;;;5011398;28;20549;-29
2023/07/31 06:33:56;;;;;;;2.87;1.57;;;;;;;;;;5011529;28;20218;-27
2023/07/31 06:36:23;;;;;;;4.57;1.90;;;;;;;;;;5010959;28;20199;-29
2023/07/31 06:38:50;;;;;;;2.50;1.30;;;;;;;;;;5020963;28;20229;-26
2023/07/31 06:41:17;;;;;;;2.67;1.60;;;;;;;;;;5029708;28;20231;-30
2023/07/31 06:43:44;;;;;;;3.23;1.87;;;;;;;;;;5024034;28;20207;-27
2023/07/31 06:46:11;;;;;;;4.37;1.70;;;;;;;;;;5020005;28;20213;-27
2023/07/31 06:48:39;;;;;;;3.50;1.83;;;;;;;;;;5012948;28;20751;-28
2023/07/31 06:51:07;;;;;;;1.93;1.50;;;;;;;;;;5016837;28;20254;-26
2023/07/31 06:53:34;;;;;;;3.60;1.90;;;;;;;;;;5019915;28;20211;-26
2023/07/31 06:56:02;;;;;;;2.10;1.50;;;;;;;;;;5031661;28;20299;-29
2023/07/31 06:58:34;;;;;;;6.00;1.90;;;;;;;;;;5026051;28;20713;-29
2023/07/31 07:01:01;;;;;;;4.67;1.50;;;;;;;;;;5021114;28;20259;-30
2023/07/31 07:03:28;;;;;;;2.63;1.30;;;;;;;;;;5011748;28;20235;-27
2023/07/31 07:05:56;;;;;;;2.10;1.70;;;;;;;;;;5010621;28;20295;-29
2023/07/31 07:08:24;;;;;;;1.53;1.40;;;;;;;;;;5022218;28;20226;-28
2023/07/31 07:10:52;;;;;;;1.70;1.30;;;;;;;;;;5013703;28;20242;-29
2023/07/31 07:13:26;;;;;;;2.33;1.50;;;;;;;;;;5014191;28;20207;-36
2023/07/31 07:15:53;;;;;;;1.77;1.40;;;;;;;;;;5011926;28;20204;-30
2023/07/31 07:18:22;;;;;;;2.73;1.37;;;;;;;;;;5011211;28;20291;-30
2023/07/31 07:20:53;;;;;;;2.37;1.27;;;;;;;;;;5021802;28;20226;-30
2023/07/31 07:23:21;;;;;;;2.80;1.33;;;;;;;;;;5011733;28;20288;-29
2023/07/31 07:25:51;;;;;;;2.57;1.33;;;;;;;;;;5019297;28;20232;-30
2023/07/31 07:28:19;;;;;;;2.77;1.50;;;;;;;;;;5027890;28;20648;-28
2023/07/31 07:30:46;;;;;;;1.77;1.20;;;;;;;;;;5023281;28;20283;-31
2023/07/31 07:33:13;;;;;;;3.27;1.80;;;;;;;;;;5011909;28;20202;-28
2023/07/31 07:35:50;;;;;;;1.20;1.10;;;;;;;;;;5012079;28;20214;-30
2023/07/31 07:38:20;;;;;;;1.77;1.10;;;;;;;;;;5013705;28;20198;-28
2023/07/31 07:40:53;;;;;;;6.70;1.30;;;;;;;;;;5023612;28;20240;-31
2023/07/31 07:43:20;;;;;;;2.33;1.53;;;;;;;;;;5021934;28;20238;-27
2023/07/31 07:45:48;;;;;;;3.77;1.37;;;;;;;;;;5015385;28;20297;-31
2023/07/31 07:48:18;;;;;;;1.87;1.20;;;;;;;;;;5034501;28;20319;-30
2023/07/31 07:50:46;;;;;;;4.57;1.50;;;;;;;;;;5030273;28;20207;-29
2023/07/31 07:53:14;;;;;;;5.30;1.47;;;;;;;;;;5026292;28;20307;-31
2023/07/31 07:55:44;;;;;;;3.03;1.30;;;;;;;;;;5028683;28;20217;-27
2023/07/31 07:58:13;;;;;;;3.95;1.38;;;;;;;;;;5015868;28;20289;-30
2023/07/31 08:00:42;;;;;;;3.00;1.20;;;;;;;;;;5015377;28;20226;-30
2023/07/31 08:03:20;;;;;;;2.53;1.63;;;;;;;;;;5034778;28;20205;-29
2023/07/31 08:05:53;;;;;;;2.07;1.30;;;;;;;;;;5027946;28;20211;-27
2023/07/31 08:08:21;;;;;;;1.83;1.53;;;;;;;;;;5020887;28;20214;-27
2023/07/31 08:10:52;;;;;;;3.30;1.67;;;;;;;;;;5031924;28;20240;-30
2023/07/31 08:13:21;;;;;;;2.50;1.43;;;;;;;;;;5026474;28;20625;-30
2023/07/31 08:15:49;;;;;;;1.90;1.47;;;;;;;;;;5022852;28;20765;-27
2023/07/31 08:18:17;;;;;;;4.10;1.45;;;;;;;;;;5015314;28;20265;-28
2023/07/31 08:20:44;;;;;;;3.50;1.37;;;;;;;;;;5016123;28;20352;-27
2023/07/31 08:23:16;;;;;;;1.40;1.27;;;;;;;;;;5023607;28;20194;-27
2023/07/31 08:26:00;;;;;;;2.80;1.50;;;;;;;;;;5024984;28;20219;-31
2023/07/31 08:28:29;;;;;;;4.30;1.70;;;;;;;;;;5028581;28;20202;-30
2023/07/31 08:30:57;;;;;;;3.03;1.50;;;;;;;;;;5018512;28;20257;-30
2023/07/31 08:33:26;;;;;;;3.63;1.50;;;;;;;;;;5034607;28;20217;-28
2023/07/31 08:35:57;;;;;;;2.87;1.60;;;;;;;;;;5027376;28;20206;-30
2023/07/31 08:38:25;;;;;;;3.17;1.63;;;;;;;;;;5014337;28;20579;-27
2023/07/31 08:41:02;;;;;;;2.47;1.60;;;;;;;;;;5014650;28;20227;-28
2023/07/31 08:43:36;;;;;;;2.80;1.40;;;;;;;;;;5019866;28;20527;-28
2023/07/31 08:46:06;;;;;;;6.10;1.70;;;;;;;;;;5032991;28;20491;-30
2023/07/31 08:48:37;;;;;;;5.57;1.90;;;;;;;;;;5033752;28;20352;-28
2023/07/31 08:51:14;;;;;;;3.57;1.93;;;;;;;;;;5031775;28;20210;-31
2023/07/31 08:53:44;;;;;;;4.03;1.73;;;;;;;;;;5021191;28;20214;-28
2023/07/31 08:56:13;;;;;;;2.47;1.57;;;;;;;;;;5029889;28;20205;-26
2023/07/31 08:58:42;;;;;;;4.70;2.03;;;;;;;;;;5015412;28;20319;-27
2023/07/31 09:01:13;;;;;;;3.47;1.67;;;;;;;;;;5024718;28;20264;-29
2023/07/31 09:03:45;;;;;;;4.10;1.45;;;;;;;;;;5033999;28;20213;-30
2023/07/31 09:06:14;;;;;;;4.72;1.80;;;;;;;;;;5027802;28;20219;-28
2023/07/31 09:08:47;;;;;;;3.40;1.80;;;;;;;;;;5020851;28;20248;-30
2023/07/31 09:11:17;;;;;;;4.47;1.98;;;;;;;;;;5025511;28;20252;-26
2023/07/31 09:13:48;;;;;;;4.35;1.83;;;;;;;;;;5026437;28;20203;-25
2023/07/31 09:16:15;;;;;;;4.35;2.00;;;;;;;;;;5013851;28;20203;-32
2023/07/31 09:18:58;;;;;;;5.20;1.52;;;;;;;;;;5015150;28;20219;-30
2023/07/31 09:21:31;;;;;;;3.00;2.03;;;;;;;;;;5020839;28;20281;-29
2023/07/31 09:24:23;;;;;;;3.92;1.70;;;;;;;;;;5032746;28;20217;-29
2023/07/31 09:32:45;;;;;;;4.90;1.80;;;;;;;;;;5034263;28;20230;-29
2023/07/31 09:35:23;;;;;;;2.58;1.50;;;;;;;;;;5033914;28;20206;-30
2023/07/31 09:37:52;;;;;;;4.32;1.73;;;;;;;;;;5024388;28;20313;-30
2023/07/31 09:40:31;;;;;;;5.22;1.80;;;;;;;;;;5013535;28;20325;-31
2023/07/31 09:42:58;;;;;;;2.87;2.17;;;;;;;;;;5015785;28;20253;-29
2023/07/31 09:45:31;;;;;;;3.42;1.63;;;;;;;;;;5024757;28;20201;-27
2023/07/31 09:48:07;;;;;;;6.00;2.00;;;;;;;;;;5033047;28;20289;-29
2023/07/31 09:50:39;;;;;;;5.43;1.60;;;;;;;;;;5034062;28;20210;-29
2023/07/31 09:53:09;;;;;;;3.42;1.88;;;;;;;;;;5032613;28;20210;-29
2023/07/31 09:55:36;;;;;;;3.33;1.88;;;;;;;;;;5024958;28;20236;-30
2023/07/31 09:58:05;;;;;;;3.78;1.70;;;;;;;;;;5025276;28;20300;-29
2023/07/31 10:00:37;;;;;;;7.03;2.10;;;;;;;;;;5026410;28;20254;-26
2023/07/31 10:03:07;;;;;;;3.23;1.70;;;;;;;;;;5031665;28;20210;-30
2023/07/31 10:05:53;;;;;;;2.13;1.60;;;;;;;;;;5032362;28;20210;-31
2023/07/31 10:08:24;;;;;;;2.20;1.70;;;;;;;;;;5031301;28;20285;-29
2023/07/31 10:10:51;;;;;;;2.77;1.57;;;;;;;;;;5025432;28;20205;-27
2023/07/31 10:13:23;;;;;;;4.70;1.63;;;;;;;;;;5020203;28;20207;-30
2023/07/31 10:15:53;;;;;;;6.10;1.90;;;;;;;;;;5024448;28;20203;-31
2023/07/31 10:18:21;;;;;;;2.77;1.67;;;;;;;;;;5013292;28;20214;-29
2023/07/31 10:20:50;;;;;;;3.33;1.87;;;;;;;;;;5014168;28;22247;-28
2023/07/31 10:23:20;;;;;;;3.73;1.70;;;;;;;;;;5033027;28;20214;-29
2023/07/31 10:25:55;;;;;;;6.00;2.07;;;;;;;;;;5031707;28;20209;-29
2023/07/31 10:28:30;;;;;;;3.90;1.83;;;;;;;;;;5028141;28;20209;-27
2023/07/31 10:34:06;;;;;;;2.93;1.77;;;;;;;;;;5005031;28;20202;-30
2023/07/31 10:36:52;;;;;;;4.93;2.00;;;;;;;;;;5015110;28;20217;-31
2023/07/31 10:39:38;;;;;;;4.03;1.80;;;;;;;;;;5012739;28;20226;-29
2023/07/31 10:42:18;;;;;;;6.60;1.70;;;;;;;;;;5030037;28;20357;-27
2023/07/31 10:44:54;;;;;;;2.90;1.90;;;;;;;;;;5025534;28;20201;-36
2023/07/31 10:47:21;;;;;;;4.13;2.00;;;;;;;;;;5032562;28;20212;-28
2023/07/31 10:49:53;;;;;;;2.43;1.67;;;;;;;;;;5033131;28;20237;-28
2023/07/31 10:52:23;;;;;;;10.07;2.20;;;;;;;;;;5109455;22;20291;-28
2023/07/31 10:54:50;;;;;;;3.03;1.60;;;;;;;;;;5051581;28;20201;-27
2023/07/31 10:57:21;;;;;;;4.53;1.70;;;;;;;;;;5050487;28;20197;-28
2023/07/31 10:59:48;;;;;;;5.33;1.70;;;;;;;;;;5038834;28;20226;-26
2023/07/31 11:02:26;;;;;;;3.20;2.10;;;;;;;;;;5044641;28;20220;-30
2023/07/31 11:05:08;;;;;;;6.53;2.33;;;;;;;;;;5052576;28;20186;-30
2023/07/31 11:07:49;;;;;;;3.77;1.50;;;;;;;;;;5033290;28;20236;-26
2023/07/31 11:10:20;;;;;;;5.00;1.93;;;;;;;;;;5038041;28;20218;-28
2023/07/31 11:12:47;;;;;;;3.60;1.63;;;;;;;;;;5033125;28;20206;-28
2023/07/31 11:15:14;;;;;;;3.50;1.80;;;;;;;;;;5048035;28;20204;-28
2023/07/31 11:17:42;;;;;;;5.90;2.10;;;;;;;;;;5039779;28;20206;-27
2023/07/31 11:20:09;;;;;;;3.83;2.00;;;;;;;;;;5035087;28;20316;-27
2023/07/31 11:22:36;;;;;;;3.93;2.10;;;;;;;;;;5036522;28;20225;-26
2023/07/31 11:25:06;;;;;;;4.90;2.27;;;;;;;;;;5053804;28;20212;-30
2023/07/31 11:27:40;;;;;;;3.40;1.93;;;;;;;;;;5037435;28;20213;-26
2023/07/31 11:30:15;;;;;;;4.80;1.70;;;;;;;;;;5047587;28;20221;-28
2023/07/31 11:32:42;;;;;;;2.30;1.67;;;;;;;;;;5051329;28;20212;-27
2023/07/31 11:35:13;;;;;;;2.67;1.80;;;;;;;;;;5054004;28;20210;-27
2023/07/31 11:37:41;;;;;;;3.30;1.97;;;;;;;;;;5042058;28;20206;-27
2023/07/31 11:40:10;;;;;;;4.77;2.03;;;;;;;;;;5034566;28;20226;-27
2023/07/31 11:42:37;;;;;;;4.63;1.90;;;;;;;;;;5033571;28;20316;-28
2023/07/31 11:45:05;;;;;;;1.70;1.60;;;;;;;;;;5045710;28;20284;-25
2023/07/31 11:47:34;;;;;;;3.90;2.30;;;;;;;;;;5049041;28;20209;-28
2023/07/31 11:50:01;;;;;;;5.83;1.97;;;;;;;;;;5048317;28;20224;-29
2023/07/31 11:52:29;;;;;;;3.37;1.77;;;;;;;;;;5041390;28;20216;-28
2023/07/31 11:54:56;;;;;;;2.30;1.47;;;;;;;;;;5035362;28;20219;-28
2023/07/31 11:57:25;;;;;;;3.20;2.03;;;;;;;;;;5035963;28;20265;-27
2023/07/31 11:59:52;;;;;;;2.87;1.43;;;;;;;;;;5040081;28;20309;-29
2023/07/31 12:02:20;;;;;;;2.47;1.67;;;;;;;;;;5041838;28;20312;-24
2023/07/31 12:04:48;;;;;;;4.37;2.23;;;;;;;;;;5034982;28;20220;-27
2023/07/31 12:07:15;;;;;;;3.42;1.90;;;;;;;;;;5032346;28;20209;-27
2023/07/31 12:09:52;;;;;;;7.10;2.27;;;;;;;;;;5043314;28;20231;-26
2023/07/31 12:12:21;;;;;;;3.57;1.80;;;;;;;;;;5036815;28;20196;-29
2023/07/31 12:14:50;;;;;;;4.43;1.87;;;;;;;;;;5043201;28;20245;-29
2023/07/31 12:17:18;;;;;;;5.00;2.47;;;;;;;;;;5034257;28;20210;-28
2023/07/31 12:19:45;;;;;;;3.83;2.23;;;;;;;;;;5035392;28;20229;-28
2023/07/31 12:22:13;;;;;;;2.60;2.07;;;;;;;;;;5032513;28;20228;-25
2023/07/31 12:24:41;;;;;;;4.90;1.90;;;;;;;;;;5042198;28;20209;-28
2023/07/31 12:27:11;;;;;;;2.13;1.77;;;;;;;;;;5034152;28;20213;-24
2023/07/31 12:29:40;;;;;;;6.93;2.10;;;;;;;;;;5037709;28;20226;-25
2023/07/31 12:32:20;;;;;;;3.23;2.13;;;;;;;;;;5034915;28;20206;-26
2023/07/31 12:34:48;;;;;;;3.50;1.77;;;;;;;;;;5035050;28;20191;-26
2023/07/31 12:37:15;;;;;;;4.27;2.20;;;;;;;;;;5032064;28;20204;-27
2023/07/31 12:39:42;;;;;;;3.10;2.10;;;;;;;;;;5036541;28;20247;-27
2023/07/31 12:42:09;;;;;;;6.33;1.97;;;;;;;;;;5031812;28;20218;-28
2023/07/31 12:44:36;;;;;;;3.27;1.83;;;;;;;;;;5040715;28;20210;-26
2023/07/31 12:47:03;;;;;;;3.80;1.73;;;;;;;;;;5053963;28;20666;-28
2023/07/31 12:49:32;;;;;;;3.23;2.20;;;;;;;;;;5048497;28;20233;-28
2023/07/31 12:51:59;;;;;;;2.30;2.00;;;;;;;;;;5040527;28;20216;-27
2023/07/31 12:54:26;;;;;;;2.17;1.83;;;;;;;;;;5042237;28;20291;-31
2023/07/31 12:56:53;;;;;;;4.10;2.40;;;;;;;;;;5032924;28;20217;-25
2023/07/31 12:59:21;;;;;;;5.93;1.80;;;;;;;;;;5045756;28;20281;-26
2023/07/31 13:01:48;;;;;;;3.40;2.13;;;;;;;;;;5045788;28;20217;-25
2023/07/31 13:04:15;;;;;;;4.53;2.10;;;;;;;;;;5052130;28;20212;-30
2023/07/31 13:06:44;;;;;;;5.27;2.17;;;;;;;;;;5037407;28;20210;-25
2023/07/31 13:09:11;;;;;;;2.63;1.77;;;;;;;;;;5029067;28;20231;-28
2023/07/31 13:11:38;;;;;;;4.33;2.20;;;;;;;;;;5047663;28;20241;-25
2023/07/31 13:14:05;;;;;;;3.77;2.00;;;;;;;;;;5043178;28;20288;-26
2023/07/31 13:16:32;;;;;;;3.77;1.63;;;;;;;;;;5032264;28;20305;-29
2023/07/31 13:19:03;;;;;;;2.20;1.93;;;;;;;;;;5034640;28;20222;-24
2023/07/31 13:21:30;;;;;;;3.03;1.70;;;;;;;;;;5039146;28;20204;-24
2023/07/31 13:24:00;;;;;;;3.23;1.93;;;;;;;;;;5033977;28;20201;-25
2023/07/31 13:26:27;;;;;;;5.03;1.90;;;;;;;;;;5034933;28;20217;-28
2023/07/31 13:28:54;;;;;;;3.97;1.93;;;;;;;;;;5035885;28;20295;-26
2023/07/31 13:31:23;;;;;;;4.00;2.40;;;;;;;;;;5037264;28;20198;-26
2023/07/31 13:33:50;;;;;;;5.13;1.80;;;;;;;;;;5051803;28;20662;-28
2023/07/31 13:36:17;;;;;;;4.13;1.73;;;;;;;;;;5035255;28;20198;-31
2023/07/31 13:38:44;;;;;;;5.97;2.07;;;;;;;;;;5041677;28;20242;-27
2023/07/31 13:41:13;;;;;;;2.47;1.83;;;;;;;;;;5033220;28;20213;-26
2023/07/31 13:43:44;;;;;;;2.87;2.03;;;;;;;;;;5023875;28;20235;-26
2023/07/31 13:46:13;;;;;;;3.40;1.70;;;;;;;;;;5040989;28;20287;-23
2023/07/31 13:48:40;;;;;;;3.57;1.60;;;;;;;;;;5033022;28;20321;-24
2023/07/31 13:51:08;;;;;;;5.27;2.27;;;;;;;;;;5031398;28;20213;-25
2023/07/31 13:53:35;;;;;;;3.70;1.80;;;;;;;;;;5035223;28;20296;-23
2023/07/31 13:56:04;;;;;;;3.73;1.80;;;;;;;;;;5032574;28;20205;-28
2023/07/31 13:58:32;;;;;;;3.50;2.13;;;;;;;;;;5035811;28;20271;-27
2023/07/31 14:00:59;;;;;;;5.33;2.47;;;;;;;;;;5032580;28;20240;-26
2023/07/31 14:03:27;;;;;;;4.57;2.27;;;;;;;;;;5033402;28;20238;-27
2023/07/31 14:05:55;;;;;;;4.80;1.90;;;;;;;;;;5032410;28;20282;-26
2023/07/31 14:08:22;;;;;;;3.07;1.90;;;;;;;;;;5038632;28;20204;-27
2023/07/31 14:10:49;;;;;;;2.77;2.03;;;;;;;;;;5049626;28;20209;-26
2023/07/31 14:13:16;;;;;;;3.77;2.10;;;;;;;;;;5033254;28;20237;-27
2023/07/31 14:15:45;;;;;;;4.50;2.10;;;;;;;;;;5032740;28;20205;-30
2023/07/31 14:18:12;;;;;;;3.90;1.73;;;;;;;;;;5032630;28;20221;-26
2023/07/31 14:20:39;;;;;;;3.53;1.93;;;;;;;;;;5035398;28;20205;-26
2023/07/31 14:23:08;;;;;;;3.23;1.83;;;;;;;;;;5039333;28;20230;-26
2023/07/31 14:25:35;;;;;;;3.03;1.90;;;;;;;;;;5031522;28;20299;-28
2023/07/31 14:28:02;;;;;;;4.53;2.03;;;;;;;;;;5034478;28;20204;-29
2023/07/31 14:30:32;;;;;;;3.37;2.00;;;;;;;;;;5030840;28;20307;-28
2023/07/31 14:33:02;;;;;;;3.70;1.90;;;;;;;;;;5031855;28;20202;-26
2023/07/31 14:35:29;;;;;;;5.47;2.50;;;;;;;;;;5033002;28;20205;-28
2023/07/31 14:37:56;;;;;;;3.07;1.80;;;;;;;;;;5032198;28;20216;-30
2023/07/31 14:40:23;;;;;;;8.37;2.10;;;;;;;;;;5019875;28;20234;-23
2023/07/31 14:42:51;;;;;;;5.37;2.17;;;;;;;;;;5035387;28;20229;-26
2023/07/31 14:45:18;;;;;;;3.80;2.10;;;;;;;;;;5036653;28;20304;-29
2023/07/31 14:47:45;;;;;;;3.70;2.20;;;;;;;;;;5047855;28;20290;-28
2023/07/31 14:50:14;;;;;;;2.80;1.90;;;;;;;;;;5031488;28;20225;-26
2023/07/31 14:52:41;;;;;;;4.87;2.10;;;;;;;;;;5041945;28;20243;-29
2023/07/31 14:55:09;;;;;;;2.97;2.03;;;;;;;;;;5028946;28;20295;-29
2023/07/31 14:57:36;;;;;;;6.10;2.43;;;;;;;;;;5029908;28;20213;-28
2023/07/31 15:00:07;;;;;;;4.10;2.33;;;;;;;;;;5029280;28;20232;-29
2023/07/31 15:02:34;;;;;;;3.40;2.27;;;;;;;;;;5029753;28;20214;-30